createdAt,value
2023-05-06T00:00:29.649Z,1.79
2023-05-06T00:01:29.672Z,2.08
2023-05-06T00:02:29.914Z,1.75
2023-05-06T00:03:29.917Z,2.16
2023-05-06T00:04:29.756Z,1.91
2023-05-06T00:05:29.812Z,1.77
2023-05-06T00:06:29.792Z,2.11
2023-05-06T00:07:29.822Z,1.79
2023-05-06T00:08:29.882Z,2.49
2023-05-06T00:09:29.849Z,1.94
2023-05-06T00:10:29.923Z,2.16
2023-05-06T00:11:29.908Z,2.33
2023-05-06T00:12:29.975Z,2.33
2023-05-06T00:13:30.036Z,2.80
2023-05-06T00:14:30.100Z,2.52
2023-05-06T00:15:32.074Z,2.51
2023-05-06T00:16:30.146Z,3.31
2023-05-06T00:17:30.184Z,2.70
2023-05-06T00:18:30.232Z,3.12
2023-05-06T00:19:30.236Z,3.90
2023-05-06T00:20:30.279Z,3.44
2023-05-06T00:21:30.353Z,3.18
2023-05-06T00:22:30.376Z,2.68
2023-05-06T00:23:30.384Z,3.01
2023-05-06T00:24:30.439Z,2.20
2023-05-06T00:25:30.389Z,2.41
2023-05-06T00:26:30.487Z,2.61
2023-05-06T00:27:30.508Z,2.34
2023-05-06T00:28:30.509Z,2.57
2023-05-06T00:29:30.559Z,2.85
2023-05-06T00:30:30.562Z,2.95
2023-05-06T00:31:30.590Z,2.92
2023-05-06T00:32:30.607Z,3.85
2023-05-06T00:33:30.662Z,3.55
2023-05-06T00:34:30.635Z,3.70
2023-05-06T00:35:30.677Z,3.75
2023-05-06T00:36:30.699Z,3.27
2023-05-06T00:37:30.778Z,2.62
2023-05-06T00:38:30.766Z,2.55
2023-05-06T00:39:30.766Z,2.87
2023-05-06T00:40:31.655Z,2.84
2023-05-06T00:41:30.793Z,3.10
2023-05-06T00:42:30.871Z,3.46
2023-05-06T00:43:30.835Z,2.34
2023-05-06T00:44:30.836Z,2.87
2023-05-06T00:45:30.899Z,2.31
2023-05-06T00:46:30.860Z,2.94
2023-05-06T00:47:30.912Z,2.86
2023-05-06T00:48:30.867Z,2.66
2023-05-06T00:49:30.874Z,2.89
2023-05-06T00:50:30.898Z,2.25
2023-05-06T00:51:30.947Z,2.51
2023-05-06T00:52:30.963Z,2.05
2023-05-06T00:53:30.955Z,2.41
2023-05-06T00:54:31.018Z,2.17
2023-05-06T00:55:31.013Z,2.65
2023-05-06T00:56:31.043Z,1.99
2023-05-06T00:57:31.097Z,2.01
2023-05-06T00:58:31.205Z,2.01
2023-05-06T00:59:31.208Z,2.60
2023-05-06T01:00:31.167Z,3.21
2023-05-06T01:01:31.356Z,3.99
2023-05-06T01:02:43.436Z,3.81
2023-05-06T01:03:32.377Z,4.15
2023-05-06T01:04:31.349Z,4.17
2023-05-06T01:05:31.275Z,6.14
2023-05-06T01:06:31.300Z,4.94
2023-05-06T01:07:31.252Z,4.66
2023-05-06T01:08:31.231Z,4.88
2023-05-06T01:09:31.283Z,4.36
2023-05-06T01:10:31.262Z,3.51
2023-05-06T01:11:31.244Z,2.88
2023-05-06T01:12:31.216Z,3.02
2023-05-06T01:13:31.248Z,2.87
2023-05-06T01:14:31.302Z,2.79
2023-05-06T01:15:31.210Z,2.28
2023-05-06T01:16:31.256Z,1.91
2023-05-06T01:17:31.242Z,2.20
2023-05-06T01:18:31.195Z,2.14
2023-05-06T01:19:31.242Z,2.37
2023-05-06T01:20:31.277Z,1.87
2023-05-06T01:21:31.295Z,2.24
2023-05-06T01:22:31.307Z,3.64
2023-05-06T01:23:31.330Z,3.40
2023-05-06T01:24:31.367Z,3.04
2023-05-06T01:25:31.379Z,2.58
2023-05-06T01:26:31.432Z,2.55
2023-05-06T01:27:31.438Z,2.05
2023-05-06T01:28:31.451Z,1.98
2023-05-06T01:29:31.506Z,2.15
2023-05-06T01:30:31.553Z,2.54
2023-05-06T01:31:31.566Z,1.95
2023-05-06T01:32:31.605Z,2.17
2023-05-06T01:33:31.605Z,1.83
2023-05-06T01:34:31.636Z,2.38
2023-05-06T01:35:31.655Z,2.69
2023-05-06T01:36:31.721Z,1.86
2023-05-06T01:37:31.683Z,2.84
2023-05-06T01:38:31.708Z,1.99
2023-05-06T01:39:31.733Z,4.28
2023-05-06T01:40:31.751Z,3.78
2023-05-06T01:41:31.779Z,3.49
2023-05-06T01:42:31.815Z,3.66
2023-05-06T01:43:31.853Z,3.94
2023-05-06T01:44:31.868Z,3.96
2023-05-06T01:45:31.913Z,4.39
2023-05-06T01:46:32.028Z,4.32
2023-05-06T01:47:31.951Z,4.16
2023-05-06T01:48:31.980Z,3.86
2023-05-06T01:49:31.999Z,3.27
2023-05-06T01:50:32.046Z,3.91
2023-05-06T01:51:32.107Z,4.25
2023-05-06T01:52:32.157Z,4.95
2023-05-06T01:53:32.164Z,4.57
2023-05-06T01:54:32.264Z,4.51
2023-05-06T01:55:32.230Z,3.89
2023-05-06T01:56:32.236Z,4.31
2023-05-06T01:57:32.252Z,3.69
2023-05-06T01:58:32.259Z,3.14
2023-05-06T01:59:32.321Z,3.05
2023-05-06T02:00:32.350Z,3.19
2023-05-06T02:01:32.468Z,2.73
2023-05-06T02:02:32.513Z,3.18
2023-05-06T02:03:32.487Z,2.34
2023-05-06T02:04:32.458Z,3.23
2023-05-06T02:05:32.520Z,3.61
2023-05-06T02:06:32.520Z,3.25
2023-05-06T02:07:32.586Z,3.41
2023-05-06T02:08:32.600Z,3.86
2023-05-06T02:09:32.619Z,3.62
2023-05-06T02:10:32.684Z,3.38
2023-05-06T02:11:32.715Z,3.57
2023-05-06T02:12:32.829Z,3.12
2023-05-06T02:13:32.861Z,3.43
2023-05-06T02:14:32.840Z,2.75
2023-05-06T02:15:32.880Z,2.79
2023-05-06T02:16:33.046Z,2.23
2023-05-06T02:17:32.986Z,2.09
2023-05-06T02:18:33.023Z,2.74
2023-05-06T02:19:33.040Z,2.39
2023-05-06T02:20:33.022Z,2.75
2023-05-06T02:21:33.097Z,2.59
2023-05-06T02:22:33.123Z,2.28
2023-05-06T02:23:33.138Z,2.61
2023-05-06T02:24:33.217Z,2.70
2023-05-06T02:25:33.239Z,2.47
2023-05-06T02:26:33.308Z,2.75
2023-05-06T02:27:33.321Z,3.30
2023-05-06T02:28:33.348Z,2.22
2023-05-06T02:29:33.416Z,2.18
2023-05-06T02:30:33.413Z,2.78
2023-05-06T02:31:33.478Z,2.02
2023-05-06T02:32:33.543Z,2.15
2023-05-06T02:33:33.560Z,2.48
2023-05-06T02:34:33.591Z,2.77
2023-05-06T02:35:33.654Z,1.91
2023-05-06T02:36:33.668Z,2.42
2023-05-06T02:37:33.677Z,2.38
2023-05-06T02:38:33.729Z,2.89
2023-05-06T02:39:33.725Z,2.48
2023-05-06T02:40:33.791Z,2.30
2023-05-06T02:41:33.831Z,2.73
2023-05-06T02:42:33.975Z,2.97
2023-05-06T02:43:33.916Z,2.38
2023-05-06T02:44:33.897Z,2.47
2023-05-06T02:45:33.986Z,2.08
2023-05-06T02:46:33.968Z,2.28
2023-05-06T02:47:34.035Z,2.07
2023-05-06T02:48:33.986Z,1.67
2023-05-06T02:49:34.009Z,2.43
2023-05-06T02:50:34.127Z,2.14
2023-05-06T02:51:34.091Z,2.61
2023-05-06T02:52:34.078Z,1.94
2023-05-06T02:53:34.141Z,2.81
2023-05-06T02:54:34.126Z,2.71
2023-05-06T02:55:34.149Z,2.38
2023-05-06T02:56:34.224Z,2.48
2023-05-06T02:57:34.231Z,1.97
2023-05-06T02:58:34.273Z,2.75
2023-05-06T02:59:34.266Z,2.45
2023-05-06T03:00:34.318Z,2.04
2023-05-06T03:01:34.376Z,2.09
2023-05-06T03:02:34.400Z,2.31
2023-05-06T03:03:34.408Z,2.14
2023-05-06T03:04:34.508Z,2.05
2023-05-06T03:05:34.511Z,2.27
2023-05-06T03:06:34.470Z,2.37
2023-05-06T03:07:34.577Z,2.74
2023-05-06T03:08:34.543Z,2.22
2023-05-06T03:09:34.585Z,2.10
2023-05-06T03:10:34.645Z,2.79
2023-05-06T03:11:34.621Z,2.42
2023-05-06T03:12:34.760Z,2.33
2023-05-06T03:13:34.695Z,2.49
2023-05-06T03:14:34.716Z,2.70
2023-05-06T03:15:34.772Z,2.73
2023-05-06T03:16:34.807Z,2.18
2023-05-06T03:17:34.799Z,2.34
2023-05-06T03:18:34.843Z,2.56
2023-05-06T03:19:34.853Z,2.17
2023-05-06T03:20:34.866Z,2.83
2023-05-06T03:21:34.944Z,2.72
2023-05-06T03:22:35.053Z,2.62
2023-05-06T03:23:34.976Z,2.49
2023-05-06T03:24:34.985Z,2.38
2023-05-06T03:25:34.999Z,2.53
2023-05-06T03:26:34.996Z,2.37
2023-05-06T03:27:35.053Z,2.18
2023-05-06T03:28:35.050Z,2.53
2023-05-06T03:29:35.063Z,2.37
2023-05-06T03:30:35.137Z,2.43
2023-05-06T03:31:35.224Z,2.16
2023-05-06T03:32:35.299Z,2.06
2023-05-06T03:33:35.294Z,1.94
2023-05-06T03:34:35.328Z,2.19
2023-05-06T03:35:35.382Z,2.69
2023-05-06T03:36:35.404Z,2.57
2023-05-06T03:37:35.482Z,2.49
2023-05-06T03:38:35.651Z,2.36
2023-05-06T03:39:35.555Z,2.25
2023-05-06T03:40:35.536Z,1.91
2023-05-06T03:41:35.558Z,2.30
2023-05-06T03:42:35.599Z,2.39
2023-05-06T03:43:35.608Z,2.86
2023-05-06T03:44:35.624Z,2.51
2023-05-06T03:45:35.652Z,2.26
2023-05-06T03:46:35.870Z,2.88
2023-05-06T03:47:35.763Z,2.63
2023-05-06T03:48:35.755Z,2.67
2023-05-06T03:49:35.754Z,2.66
2023-05-06T03:50:35.799Z,3.03
2023-05-06T03:51:35.979Z,3.54
2023-05-06T03:52:35.935Z,2.89
2023-05-06T03:53:35.875Z,3.11
2023-05-06T03:54:36.023Z,2.73
2023-05-06T03:55:35.971Z,2.63
2023-05-06T03:56:36.005Z,2.28
2023-05-06T03:57:36.047Z,2.20
2023-05-06T03:58:36.081Z,2.70
2023-05-06T03:59:36.127Z,2.83
2023-05-06T04:00:36.189Z,2.70
2023-05-06T04:01:36.233Z,2.70
2023-05-06T04:02:36.407Z,2.75
2023-05-06T04:03:36.356Z,3.32
2023-05-06T04:04:36.325Z,2.74
2023-05-06T04:05:36.379Z,2.69
2023-05-06T04:06:36.337Z,2.99
2023-05-06T04:07:36.376Z,2.76
2023-05-06T04:08:36.429Z,3.38
2023-05-06T04:09:36.446Z,3.66
2023-05-06T04:10:36.532Z,3.61
2023-05-06T04:11:36.498Z,3.61
2023-05-06T04:12:36.589Z,2.82
2023-05-06T04:13:36.524Z,2.76
2023-05-06T04:14:36.560Z,2.84
2023-05-06T04:15:36.528Z,3.13
2023-05-06T04:16:36.627Z,2.46
2023-05-06T04:17:36.624Z,2.91
2023-05-06T04:18:36.599Z,2.66
2023-05-06T04:19:36.661Z,2.90
2023-05-06T04:20:36.700Z,2.44
2023-05-06T04:21:36.718Z,2.46
2023-05-06T04:22:36.721Z,2.22
2023-05-06T04:23:36.738Z,2.56
2023-05-06T04:24:36.756Z,2.22
2023-05-06T04:25:36.803Z,2.35
2023-05-06T04:26:36.876Z,2.08
2023-05-06T04:27:36.856Z,2.37
2023-05-06T04:28:36.921Z,2.39
2023-05-06T04:29:36.957Z,2.37
2023-05-06T04:30:37.007Z,2.03
2023-05-06T04:31:37.174Z,2.51
2023-05-06T04:32:37.097Z,2.28
2023-05-06T04:33:37.101Z,2.28
2023-05-06T04:34:37.118Z,1.81
2023-05-06T04:35:37.114Z,1.79
2023-05-06T04:36:38.333Z,1.76
2023-05-06T04:37:37.114Z,2.39
2023-05-06T04:38:37.135Z,1.82
2023-05-06T04:39:37.133Z,2.47
2023-05-06T04:40:37.154Z,2.12
2023-05-06T04:41:37.132Z,2.20
2023-05-06T04:42:37.225Z,2.11
2023-05-06T04:43:37.087Z,2.15
2023-05-06T04:44:37.095Z,2.01
2023-05-06T04:45:37.092Z,2.54
2023-05-06T04:46:37.116Z,1.92
2023-05-06T04:47:37.076Z,2.26
2023-05-06T04:48:37.055Z,2.43
2023-05-06T04:49:37.062Z,2.51
2023-05-06T04:50:37.024Z,2.68
2023-05-06T04:51:37.070Z,1.86
2023-05-06T04:52:37.030Z,2.56
2023-05-06T04:53:37.039Z,2.23
2023-05-06T04:54:37.025Z,2.07
2023-05-06T04:55:37.053Z,2.21
2023-05-06T04:56:37.024Z,2.31
2023-05-06T04:57:37.092Z,2.71
2023-05-06T04:58:37.064Z,2.00
2023-05-06T04:59:37.011Z,2.49
2023-05-06T05:00:37.006Z,2.27
2023-05-06T05:01:36.991Z,1.98
2023-05-06T05:02:37.100Z,2.74
2023-05-06T05:03:36.979Z,2.98
2023-05-06T05:04:36.989Z,2.48
2023-05-06T05:05:36.959Z,2.53
2023-05-06T05:06:36.931Z,2.96
2023-05-06T05:07:36.984Z,3.31
2023-05-06T05:08:36.939Z,2.74
2023-05-06T05:09:36.905Z,2.74
2023-05-06T05:10:36.931Z,2.90
2023-05-06T05:11:36.925Z,2.79
2023-05-06T05:12:36.919Z,3.17
2023-05-06T05:13:36.878Z,3.23
2023-05-06T05:14:36.859Z,2.90
2023-05-06T05:15:36.872Z,3.14
2023-05-06T05:16:36.888Z,3.49
2023-05-06T05:17:36.877Z,3.54
2023-05-06T05:18:36.861Z,3.47
2023-05-06T05:19:36.876Z,2.95
2023-05-06T05:20:36.844Z,3.28
2023-05-06T05:21:36.813Z,3.19
2023-05-06T05:22:36.858Z,3.19
2023-05-06T05:23:36.812Z,3.75
2023-05-06T05:24:36.794Z,3.10
2023-05-06T05:25:36.814Z,3.20
2023-05-06T05:26:36.824Z,3.41
2023-05-06T05:27:36.812Z,3.81
2023-05-06T05:28:36.791Z,3.59
2023-05-06T05:29:36.764Z,2.76
2023-05-06T05:30:36.831Z,2.62
2023-05-06T05:31:36.913Z,2.60
2023-05-06T05:32:36.864Z,2.87
2023-05-06T05:33:36.794Z,2.67
2023-05-06T05:34:36.767Z,2.37
2023-05-06T05:35:36.788Z,2.36
2023-05-06T05:36:36.763Z,2.03
2023-05-06T05:37:36.748Z,1.97
2023-05-06T05:38:36.778Z,1.82
2023-05-06T05:39:36.781Z,2.55
2023-05-06T05:40:36.734Z,2.27
2023-05-06T05:41:36.752Z,2.40
2023-05-06T05:42:36.716Z,2.28
2023-05-06T05:43:36.733Z,3.07
2023-05-06T05:44:36.698Z,2.57
2023-05-06T05:45:36.721Z,2.77
2023-05-06T05:46:36.858Z,2.53
2023-05-06T05:47:36.816Z,2.65
2023-05-06T05:48:36.756Z,3.38
2023-05-06T05:49:36.745Z,2.61
2023-05-06T05:50:36.836Z,3.35
2023-05-06T05:51:36.820Z,3.15
2023-05-06T05:52:36.882Z,2.36
2023-05-06T05:53:36.887Z,2.58
2023-05-06T05:54:36.915Z,2.55
2023-05-06T05:55:36.949Z,2.66
2023-05-06T05:56:36.972Z,3.04
2023-05-06T05:57:37.049Z,2.82
2023-05-06T05:58:37.022Z,3.02
2023-05-06T05:59:37.026Z,2.97
2023-05-06T06:00:37.056Z,2.95
2023-05-06T06:01:37.061Z,3.23
2023-05-06T06:02:37.197Z,2.68
2023-05-06T06:03:37.237Z,2.59
2023-05-06T06:04:37.291Z,3.58
2023-05-06T06:05:37.176Z,3.19
2023-05-06T06:06:37.244Z,3.10
2023-05-06T06:07:37.291Z,3.14
2023-05-06T06:08:37.346Z,3.09
2023-05-06T06:09:37.432Z,2.88
2023-05-06T06:10:37.424Z,3.06
2023-05-06T06:11:37.411Z,3.19
2023-05-06T06:12:37.455Z,2.87
2023-05-06T06:13:37.460Z,2.49
2023-05-06T06:14:37.461Z,2.55
2023-05-06T06:15:37.489Z,3.02
2023-05-06T06:16:37.628Z,3.00
2023-05-06T06:17:37.595Z,3.13
2023-05-06T06:18:37.708Z,3.04
2023-05-06T06:19:37.624Z,3.00
2023-05-06T06:20:37.662Z,3.10
2023-05-06T06:21:37.734Z,2.43
2023-05-06T06:22:37.745Z,3.27
2023-05-06T06:23:37.815Z,3.35
2023-05-06T06:24:37.832Z,3.17
2023-05-06T06:25:37.869Z,3.64
2023-05-06T06:26:37.908Z,3.18
2023-05-06T06:27:37.945Z,2.74
2023-05-06T06:28:37.957Z,3.30
2023-05-06T06:29:37.973Z,2.57
2023-05-06T06:30:38.049Z,2.02
2023-05-06T06:31:40.259Z,2.25
2023-05-06T06:32:38.333Z,2.27
2023-05-06T06:33:38.310Z,2.31
2023-05-06T06:34:38.422Z,2.12
2023-05-06T06:35:38.404Z,2.41
2023-05-06T06:36:38.400Z,2.12
2023-05-06T06:37:38.418Z,2.10
2023-05-06T06:38:38.478Z,2.07
2023-05-06T06:40:18.294Z,1.86
2023-05-06T06:41:18.332Z,2.21
2023-05-06T06:42:18.313Z,2.44
2023-05-06T06:43:18.280Z,2.37
2023-05-06T06:44:18.269Z,1.99
2023-05-06T06:45:18.260Z,2.09
2023-05-06T06:46:18.304Z,2.29
2023-05-06T06:47:18.279Z,1.96
2023-05-06T06:48:18.259Z,2.05
2023-05-06T06:49:18.467Z,2.50
2023-05-06T06:50:18.386Z,2.59
2023-05-06T06:51:18.263Z,2.99
2023-05-06T06:52:18.274Z,2.32
2023-05-06T06:53:18.245Z,2.33
2023-05-06T06:54:18.202Z,2.82
2023-05-06T06:55:18.250Z,2.18
2023-05-06T06:56:18.233Z,3.01
2023-05-06T06:57:18.203Z,2.18
2023-05-06T06:58:18.222Z,2.21
2023-05-06T06:59:18.164Z,2.42
2023-05-06T07:00:18.192Z,2.49
2023-05-06T07:01:18.201Z,2.70
2023-05-06T07:02:18.166Z,2.20
2023-05-06T07:03:18.136Z,2.05
2023-05-06T07:04:18.166Z,2.04
2023-05-06T07:05:18.177Z,2.37
2023-05-06T07:06:18.269Z,2.18
2023-05-06T07:07:18.127Z,2.21
2023-05-06T07:08:18.156Z,2.98
2023-05-06T07:09:18.172Z,2.01
2023-05-06T07:10:18.127Z,2.88
2023-05-06T07:11:18.117Z,2.15
2023-05-06T07:12:18.105Z,2.20
2023-05-06T07:13:18.109Z,2.49
2023-05-06T07:14:18.110Z,2.59
2023-05-06T07:15:18.076Z,3.45
2023-05-06T07:16:18.121Z,3.25
2023-05-06T07:17:18.161Z,2.60
2023-05-06T07:18:18.105Z,2.49
2023-05-06T07:19:18.046Z,2.42
2023-05-06T07:20:18.064Z,2.28
2023-05-06T07:21:18.042Z,1.91
2023-05-06T07:22:18.089Z,2.11
2023-05-06T07:23:18.094Z,2.59
2023-05-06T07:24:18.161Z,2.30
2023-05-06T07:25:18.170Z,2.45
2023-05-06T07:26:18.208Z,2.59
2023-05-06T07:27:18.222Z,2.52
2023-05-06T07:28:18.231Z,2.08
2023-05-06T07:29:18.218Z,2.12
2023-05-06T07:30:18.271Z,2.38
2023-05-06T07:31:18.426Z,2.36
2023-05-06T07:32:18.321Z,2.04
2023-05-06T07:33:18.370Z,2.49
2023-05-06T07:34:18.376Z,2.69
2023-05-06T07:35:18.380Z,2.25
2023-05-06T07:36:18.369Z,2.11
2023-05-06T07:37:18.446Z,2.01
2023-05-06T07:38:18.523Z,2.06
2023-05-06T07:39:18.502Z,1.93
2023-05-06T07:40:18.545Z,2.31
2023-05-06T07:41:18.603Z,2.63
2023-05-06T07:42:18.662Z,2.43
2023-05-06T07:43:18.660Z,2.52
2023-05-06T07:44:18.700Z,2.34
2023-05-06T07:45:18.770Z,4.42
2023-05-06T07:46:18.937Z,2.82
2023-05-06T07:47:18.846Z,2.00
2023-05-06T07:48:19.937Z,2.26
2023-05-06T07:49:18.861Z,2.59
2023-05-06T07:50:18.886Z,2.53
2023-05-06T07:51:18.902Z,2.69
2023-05-06T07:52:18.919Z,2.08
2023-05-06T07:53:18.960Z,2.69
2023-05-06T07:54:19.097Z,2.02
2023-05-06T07:55:19.025Z,2.27
2023-05-06T07:56:19.125Z,2.77
2023-05-06T07:57:19.096Z,2.14
2023-05-06T07:58:19.138Z,2.09
2023-05-06T07:59:19.141Z,2.36
2023-05-06T08:00:19.195Z,2.30
2023-05-06T08:01:19.193Z,2.15
2023-05-06T08:02:19.275Z,2.23
2023-05-06T08:03:19.464Z,2.43
2023-05-06T08:04:19.280Z,2.38
2023-05-06T08:05:19.257Z,2.22
2023-05-06T08:06:19.255Z,2.18
2023-05-06T08:07:19.290Z,2.58
2023-05-06T08:08:19.342Z,2.33
2023-05-06T08:09:22.935Z,2.15
2023-05-06T08:10:19.412Z,3.06
2023-05-06T08:11:19.497Z,2.01
2023-05-06T08:12:19.292Z,2.14
2023-05-06T08:13:19.332Z,1.66
2023-05-06T08:14:19.309Z,1.98
2023-05-06T08:15:19.409Z,2.19
2023-05-06T08:16:19.329Z,1.98
2023-05-06T08:17:19.323Z,2.32
2023-05-06T08:18:22.797Z,2.02
2023-05-06T08:19:19.288Z,2.35
2023-05-06T08:20:19.263Z,2.09
2023-05-06T08:21:19.256Z,2.04
2023-05-06T08:22:19.251Z,2.57
2023-05-06T08:23:19.240Z,2.21
2023-05-06T08:24:19.285Z,2.30
2023-05-06T08:25:19.222Z,2.47
2023-05-06T08:26:19.278Z,1.91
2023-05-06T08:27:19.185Z,2.01
2023-05-06T08:28:19.255Z,2.11
2023-05-06T08:29:19.198Z,2.16
2023-05-06T08:30:19.170Z,2.12
2023-05-06T08:31:19.202Z,1.70
2023-05-06T08:32:19.227Z,2.14
2023-05-06T08:33:19.158Z,2.17
2023-05-06T08:34:19.165Z,1.68
2023-05-06T08:35:19.126Z,1.89
2023-05-06T08:36:19.133Z,2.12
2023-05-06T08:37:19.152Z,2.26
2023-05-06T08:38:19.164Z,2.09
2023-05-06T08:39:19.128Z,2.34
2023-05-06T08:40:19.147Z,2.24
2023-05-06T08:41:19.104Z,1.91
2023-05-06T08:42:19.122Z,2.12
2023-05-06T08:43:19.123Z,1.93
2023-05-06T08:44:19.142Z,2.19
2023-05-06T08:45:19.090Z,1.89
2023-05-06T08:46:20.165Z,1.99
2023-05-06T08:47:19.101Z,2.17
2023-05-06T08:48:19.064Z,1.95
2023-05-06T08:49:19.074Z,2.24
2023-05-06T08:50:19.058Z,2.35
2023-05-06T08:51:19.073Z,1.76
2023-05-06T08:52:19.091Z,2.16
2023-05-06T08:53:19.067Z,2.08
2023-05-06T08:54:19.094Z,1.82
2023-05-06T08:55:19.124Z,2.11
2023-05-06T08:56:19.164Z,1.72
2023-05-06T08:57:19.188Z,2.43
2023-05-06T08:58:19.284Z,2.19
2023-05-06T08:59:19.233Z,2.38
2023-05-06T09:00:19.325Z,2.62
2023-05-06T09:01:19.352Z,2.50
2023-05-06T09:02:19.393Z,3.14
2023-05-06T09:03:19.527Z,2.97
2023-05-06T09:04:19.415Z,2.26
2023-05-06T09:05:19.446Z,2.69
2023-05-06T09:06:19.487Z,2.74
2023-05-06T09:07:19.517Z,2.62
2023-05-06T09:08:19.548Z,2.53
2023-05-06T09:09:19.575Z,1.75
2023-05-06T09:10:19.639Z,2.27
2023-05-06T09:11:19.689Z,2.32
2023-05-06T09:12:19.671Z,2.68
2023-05-06T09:13:19.898Z,2.23
2023-05-06T09:14:19.828Z,2.71
2023-05-06T09:15:19.800Z,2.35
2023-05-06T09:16:19.856Z,2.72
2023-05-06T09:17:19.807Z,2.56
2023-05-06T09:18:19.885Z,2.54
2023-05-06T09:19:19.862Z,2.37
2023-05-06T09:20:19.902Z,2.32
2023-05-06T09:21:19.941Z,2.30
2023-05-06T09:22:19.969Z,2.25
2023-05-06T09:23:20.032Z,1.79
2023-05-06T09:24:20.012Z,1.50
2023-05-06T09:25:20.070Z,1.59
2023-05-06T09:26:20.077Z,1.79
2023-05-06T09:27:20.073Z,2.05
2023-05-06T09:28:20.117Z,2.62
2023-05-06T09:29:20.136Z,2.75
2023-05-06T09:30:20.232Z,2.45
2023-05-06T09:31:20.231Z,2.32
2023-05-06T09:32:20.261Z,2.27
2023-05-06T09:33:20.264Z,2.44
2023-05-06T09:34:20.333Z,2.03
2023-05-06T09:35:20.380Z,2.30
2023-05-06T09:36:20.425Z,2.16
2023-05-06T09:37:20.553Z,2.02
2023-05-06T09:38:20.511Z,1.95
2023-05-06T09:39:20.491Z,2.21
2023-05-06T09:40:20.517Z,2.32
2023-05-06T09:41:20.522Z,2.68
2023-05-06T09:42:20.568Z,3.02
2023-05-06T09:43:20.559Z,2.52
2023-05-06T09:44:20.615Z,2.12
2023-05-06T09:45:20.654Z,2.04
2023-05-06T09:46:20.767Z,2.67
2023-05-06T09:47:20.730Z,2.86
2023-05-06T09:48:20.802Z,5.03
2023-05-06T09:49:20.783Z,2.74
2023-05-06T09:50:20.822Z,2.35
2023-05-06T09:51:20.806Z,1.97
2023-05-06T09:52:20.857Z,1.80
2023-05-06T09:53:20.917Z,2.30
2023-05-06T09:54:20.919Z,2.10
2023-05-06T09:55:20.908Z,2.14
2023-05-06T09:56:20.915Z,2.24
2023-05-06T09:57:20.940Z,2.18
2023-05-06T09:58:21.001Z,2.08
2023-05-06T09:59:21.000Z,2.46
2023-05-06T10:00:21.045Z,2.24
2023-05-06T10:01:32.652Z,2.12
2023-05-06T10:02:22.296Z,2.04
2023-05-06T10:03:21.188Z,2.20
2023-05-06T10:04:22.172Z,2.08
2023-05-06T10:05:21.075Z,2.06
2023-05-06T10:06:21.047Z,1.92
2023-05-06T10:07:21.015Z,1.96
2023-05-06T10:08:21.043Z,2.26
2023-05-06T10:09:20.992Z,2.04
2023-05-06T10:10:21.457Z,2.00
2023-05-06T10:11:21.030Z,2.21
2023-05-06T10:12:21.069Z,1.95
2023-05-06T10:13:21.124Z,1.81
2023-05-06T10:14:21.008Z,1.78
2023-05-06T10:15:20.975Z,2.52
2023-05-06T10:16:21.028Z,2.40
2023-05-06T10:17:20.968Z,1.99
2023-05-06T10:18:21.116Z,1.49
2023-05-06T10:19:21.106Z,2.01
2023-05-06T10:20:20.930Z,1.79
2023-05-06T10:21:20.944Z,2.17
2023-05-06T10:22:20.954Z,2.38
2023-05-06T10:23:20.950Z,1.69
2023-05-06T10:24:20.939Z,2.03
2023-05-06T10:25:20.898Z,2.04
2023-05-06T10:26:20.927Z,1.86
2023-05-06T10:27:20.915Z,2.08
2023-05-06T10:28:31.233Z,1.65
2023-05-06T10:29:21.908Z,2.65
2023-05-06T10:30:20.879Z,2.49
2023-05-06T10:31:20.926Z,2.25
2023-05-06T10:32:20.896Z,2.32
2023-05-06T10:33:20.876Z,2.44
2023-05-06T10:34:20.838Z,2.68
2023-05-06T10:35:20.845Z,2.63
2023-05-06T10:36:20.880Z,2.90
2023-05-06T10:37:20.832Z,2.73
2023-05-06T10:38:20.844Z,3.02
2023-05-06T10:39:20.877Z,2.30
2023-05-06T10:40:20.925Z,2.71
2023-05-06T10:41:20.934Z,2.81
2023-05-06T10:42:20.971Z,2.80
2023-05-06T10:43:20.963Z,2.50
2023-05-06T10:44:20.996Z,2.61
2023-05-06T10:45:21.049Z,2.36
2023-05-06T10:46:21.016Z,2.42
2023-05-06T10:47:21.110Z,2.66
2023-05-06T10:48:21.144Z,2.34
2023-05-06T10:49:21.185Z,2.84
2023-05-06T10:50:21.270Z,2.44
2023-05-06T10:51:21.248Z,2.85
2023-05-06T10:52:21.339Z,3.06
2023-05-06T10:53:21.329Z,2.22
2023-05-06T10:54:21.425Z,2.73
2023-05-06T10:55:21.352Z,2.16
2023-05-06T10:56:21.406Z,2.44
2023-05-06T10:57:21.459Z,2.41
2023-05-06T10:58:21.512Z,2.82
2023-05-06T10:59:21.592Z,2.19
2023-05-06T11:00:21.587Z,2.42
2023-05-06T11:01:21.727Z,2.45
2023-05-06T11:02:21.767Z,2.92
2023-05-06T11:03:21.914Z,2.56
2023-05-06T11:04:21.713Z,2.34
2023-05-06T11:05:21.846Z,2.25
2023-05-06T11:06:21.784Z,2.08
2023-05-06T11:07:21.823Z,2.64
2023-05-06T11:08:21.822Z,2.38
2023-05-06T11:09:21.852Z,2.38
2023-05-06T11:10:21.900Z,2.16
2023-05-06T11:11:21.945Z,2.35
2023-05-06T11:12:21.982Z,2.38
2023-05-06T11:13:22.169Z,3.04
2023-05-06T11:14:22.052Z,2.01
2023-05-06T11:15:22.053Z,2.25
2023-05-06T11:16:22.143Z,2.04
2023-05-06T11:17:22.146Z,2.47
2023-05-06T11:18:22.151Z,2.42
2023-05-06T11:19:22.157Z,2.24
2023-05-06T11:20:22.232Z,2.49
2023-05-06T11:21:22.205Z,2.81
2023-05-06T11:22:22.305Z,2.10
2023-05-06T11:23:22.275Z,1.80
2023-05-06T11:24:22.314Z,2.45
2023-05-06T11:25:22.362Z,2.46
2023-05-06T11:26:22.372Z,1.87
2023-05-06T11:27:22.412Z,2.42
2023-05-06T11:28:22.438Z,3.07
2023-05-06T11:29:22.433Z,2.62
2023-05-06T11:30:22.460Z,2.65
2023-05-06T11:31:22.542Z,2.38
2023-05-06T11:32:22.628Z,2.38
2023-05-06T11:33:22.577Z,2.48
2023-05-06T11:34:22.628Z,2.87
2023-05-06T11:35:22.687Z,2.22
2023-05-06T11:36:22.705Z,2.11
2023-05-06T11:37:22.770Z,2.10
2023-05-06T11:38:22.941Z,2.44
2023-05-06T11:39:22.789Z,2.97
2023-05-06T11:40:22.812Z,2.46
2023-05-06T11:41:22.909Z,2.73
2023-05-06T11:42:22.878Z,2.11
2023-05-06T11:43:22.933Z,2.38
2023-05-06T11:44:22.934Z,2.67
2023-05-06T11:45:22.995Z,3.13
2023-05-06T11:46:23.127Z,2.59
2023-05-06T11:47:23.077Z,2.61
2023-05-06T11:48:23.100Z,2.29
2023-05-06T11:49:23.128Z,2.66
2023-05-06T11:50:23.157Z,2.74
2023-05-06T11:51:23.206Z,2.54
2023-05-06T11:52:23.206Z,2.51
2023-05-06T11:53:23.265Z,2.59
2023-05-06T11:54:23.266Z,2.09
2023-05-06T11:55:23.302Z,2.41
2023-05-06T11:56:23.335Z,2.34
2023-05-06T11:57:23.361Z,2.60
2023-05-06T11:58:23.395Z,2.43
2023-05-06T11:59:23.455Z,2.41
2023-05-06T12:00:23.512Z,2.47
2023-05-06T12:01:23.540Z,2.31
2023-05-06T12:02:23.664Z,2.24
2023-05-06T12:03:23.801Z,2.41
2023-05-06T12:04:23.696Z,2.36
2023-05-06T12:05:23.703Z,3.24
2023-05-06T12:06:24.567Z,2.69
2023-05-06T12:07:23.808Z,2.49
2023-05-06T12:08:28.019Z,2.32
2023-05-06T12:09:23.818Z,2.40
2023-05-06T12:10:23.953Z,2.55
2023-05-06T12:11:23.784Z,2.27
2023-05-06T12:12:23.808Z,2.17
2023-05-06T12:13:23.888Z,2.09
2023-05-06T12:14:23.811Z,2.08
2023-05-06T12:15:23.785Z,1.86
2023-05-06T12:16:23.846Z,2.10
2023-05-06T12:17:23.758Z,2.32
2023-05-06T12:18:23.774Z,2.13
2023-05-06T12:19:23.784Z,1.78
2023-05-06T12:20:23.750Z,2.13
2023-05-06T12:21:23.753Z,2.53
2023-05-06T12:22:23.724Z,1.99
2023-05-06T12:23:23.768Z,2.27
2023-05-06T12:24:23.754Z,1.97
2023-05-06T12:25:23.739Z,2.06
2023-05-06T12:26:23.772Z,1.81
2023-05-06T12:27:23.714Z,1.72
2023-05-06T12:28:23.737Z,2.39
2023-05-06T12:29:23.707Z,2.22
2023-05-06T12:30:23.760Z,1.97
2023-05-06T12:31:23.876Z,2.37
2023-05-06T12:32:23.904Z,2.07
2023-05-06T12:33:23.834Z,2.03
2023-05-06T12:34:23.908Z,1.78
2023-05-06T12:35:23.943Z,1.98
2023-05-06T12:36:24.606Z,2.07
2023-05-06T12:37:23.990Z,2.19
2023-05-06T12:38:24.003Z,2.13
2023-05-06T12:39:24.013Z,2.13
2023-05-06T12:40:24.084Z,2.90
2023-05-06T12:41:24.051Z,2.31
2023-05-06T12:42:24.115Z,2.24
2023-05-06T12:43:24.128Z,1.76
2023-05-06T12:44:24.169Z,1.94
2023-05-06T12:45:24.218Z,2.38
2023-05-06T12:46:24.382Z,2.35
2023-05-06T12:47:24.314Z,1.90
2023-05-06T12:48:24.277Z,1.91
2023-05-06T12:49:24.285Z,1.78
2023-05-06T12:50:24.300Z,1.44
2023-05-06T12:51:24.325Z,1.90
2023-05-06T12:52:24.409Z,1.68
2023-05-06T12:53:24.421Z,1.84
2023-05-06T12:54:24.478Z,1.64
2023-05-06T12:55:24.529Z,1.81
2023-05-06T12:56:24.602Z,2.13
2023-05-06T12:57:24.565Z,1.65
2023-05-06T12:58:24.781Z,1.55
2023-05-06T12:59:24.616Z,1.93
2023-05-06T13:00:24.692Z,1.95
2023-05-06T13:01:24.720Z,2.27
2023-05-06T13:02:24.768Z,2.09
2023-05-06T13:03:24.747Z,1.75
2023-05-06T13:04:24.740Z,2.22
2023-05-06T13:05:24.821Z,1.83
2023-05-06T13:06:24.799Z,1.70
2023-05-06T13:07:24.873Z,2.09
2023-05-06T13:08:24.879Z,1.55
2023-05-06T13:09:24.907Z,1.55
2023-05-06T13:10:24.958Z,1.57
2023-05-06T13:11:24.962Z,1.71
2023-05-06T13:12:24.972Z,1.57
2023-05-06T13:13:25.091Z,1.32
2023-05-06T13:14:25.145Z,1.59
2023-05-06T13:15:25.101Z,1.55
2023-05-06T13:16:25.188Z,1.92
2023-05-06T13:17:25.203Z,1.93
2023-05-06T13:18:25.189Z,1.84
2023-05-06T13:20:26.212Z,1.55